createdAt,value
2023-10-18T00:00:24.497Z,98310.00
2023-10-18T00:02:55.778Z,98310.00
2023-10-18T00:05:24.343Z,98315.97
2023-10-18T00:07:57.495Z,98318.56
2023-10-18T00:10:26.359Z,98316.84
2023-10-18T00:12:54.056Z,98321.13
2023-10-18T00:15:22.040Z,98312.59
2023-10-18T00:17:50.407Z,98319.41
2023-10-18T00:20:20.869Z,98312.63
2023-10-18T00:22:47.826Z,98327.13
2023-10-18T00:25:14.913Z,98331.38
2023-10-18T00:27:47.929Z,98316.00
2023-10-18T00:30:17.734Z,98336.53
2023-10-18T00:32:45.938Z,98332.22
2023-10-18T00:35:23.595Z,98323.69
2023-10-18T00:37:59.894Z,98329.69
2023-10-18T00:40:30.518Z,98340.78
2023-10-18T00:43:12.378Z,98327.16
2023-10-18T00:45:47.463Z,98337.38
2023-10-18T00:48:15.867Z,98357.03
2023-10-18T00:50:44.630Z,98349.34
2023-10-18T00:53:25.212Z,98339.09
2023-10-18T00:56:05.959Z,98329.72
2023-10-18T00:58:40.336Z,98345.94
2023-10-18T01:01:11.634Z,98341.69
2023-10-18T01:03:57.962Z,98332.28
2023-10-18T01:06:27.758Z,98341.69
2023-10-18T01:08:57.099Z,98338.25
2023-10-18T01:11:30.215Z,98342.53
2023-10-18T01:14:00.314Z,98339.97
2023-10-18T01:16:37.889Z,98340.81
2023-10-18T01:19:10.183Z,98355.34
2023-10-18T01:21:38.238Z,98347.66
2023-10-18T01:24:05.386Z,98333.13
2023-10-18T01:26:33.450Z,98350.25
2023-10-18T01:29:05.244Z,98344.25
2023-10-18T01:31:32.918Z,98345.09
2023-10-18T01:34:00.357Z,98349.38
2023-10-18T01:36:33.488Z,98357.94
2023-10-18T01:39:00.761Z,98338.28
2023-10-18T01:41:28.471Z,98348.53
2023-10-18T01:44:08.895Z,98351.09
2023-10-18T01:46:37.903Z,98351.09
2023-10-18T01:49:08.657Z,98363.06
2023-10-18T01:51:36.687Z,98355.34
2023-10-18T01:54:14.036Z,98363.06
2023-10-18T01:56:42.688Z,98363.06
2023-10-18T01:59:12.204Z,98368.22
2023-10-18T02:01:39.333Z,98366.47
2023-10-18T02:04:12.767Z,98363.06
2023-10-18T02:06:39.735Z,98368.19
2023-10-18T02:09:11.389Z,98369.91
2023-10-18T02:11:38.480Z,98363.91
2023-10-18T02:14:05.578Z,98363.03
2023-10-18T02:16:33.178Z,98357.06
2023-10-18T02:19:00.598Z,98367.31
2023-10-18T02:21:27.667Z,98366.41
2023-10-18T02:23:54.587Z,98368.97
2023-10-18T02:26:30.458Z,98367.28
2023-10-18T02:29:00.765Z,98363.03
2023-10-18T02:31:30.327Z,98392.06
2023-10-18T02:33:57.599Z,98366.41
2023-10-18T02:36:33.570Z,98362.16
2023-10-18T02:39:01.653Z,98376.69
2023-10-18T02:41:28.626Z,98368.16
2023-10-18T02:43:56.900Z,98383.50
2023-10-18T02:46:25.602Z,98366.41
2023-10-18T02:48:57.521Z,98386.91
2023-10-18T02:51:26.263Z,98381.78
2023-10-18T02:53:54.486Z,98376.66
2023-10-18T02:56:22.240Z,98362.94
2023-10-18T02:58:49.527Z,98380.03
2023-10-18T03:01:20.222Z,98369.78
2023-10-18T03:03:47.921Z,98373.22
2023-10-18T03:06:15.462Z,98366.41
2023-10-18T03:08:45.348Z,98369.81
2023-10-18T03:11:12.706Z,98380.94
2023-10-18T03:13:40.054Z,98378.41
2023-10-18T03:16:09.334Z,98365.56
2023-10-18T03:18:36.327Z,98368.97
2023-10-18T03:21:10.061Z,98360.44
2023-10-18T03:23:45.596Z,98365.56
2023-10-18T03:26:13.576Z,98375.81
2023-10-18T03:28:44.824Z,98374.09
2023-10-18T03:31:30.582Z,98380.97
2023-10-18T03:34:10.274Z,98378.38
2023-10-18T03:36:50.242Z,98363.84
2023-10-18T03:39:17.601Z,98368.13
2023-10-18T03:41:47.927Z,98371.59
2023-10-18T03:44:14.878Z,98366.47
2023-10-18T03:46:50.830Z,98369.84
2023-10-18T03:49:39.332Z,98374.16
2023-10-18T03:52:13.107Z,98375.91
2023-10-18T03:54:47.999Z,98375.03
2023-10-18T03:57:17.853Z,98374.16
2023-10-18T03:59:49.938Z,98381.88
2023-10-18T04:02:25.725Z,98381.00
2023-10-18T04:04:59.088Z,98384.44
2023-10-18T04:07:28.018Z,98387.00
2023-10-18T04:10:14.329Z,98388.69
2023-10-18T04:12:44.396Z,98389.53
2023-10-18T04:15:22.925Z,98397.22
2023-10-18T04:18:09.162Z,98390.38
2023-10-18T04:20:36.840Z,98393.78
2023-10-18T04:23:13.834Z,98392.06
2023-10-18T04:25:40.774Z,98391.22
2023-10-18T04:28:07.830Z,98395.53
2023-10-18T04:30:38.151Z,98404.09
2023-10-18T04:33:11.842Z,98404.03
2023-10-18T04:35:46.054Z,98405.72
2023-10-18T04:38:42.832Z,98403.16
2023-10-18T04:41:18.399Z,98401.41
2023-10-18T04:43:45.398Z,98407.34
2023-10-18T04:46:27.887Z,98397.16
2023-10-18T04:49:01.531Z,98403.97
2023-10-18T04:51:34.807Z,98402.28
2023-10-18T04:54:13.178Z,98417.66
2023-10-18T04:56:48.221Z,98412.53
2023-10-18T04:59:17.381Z,98426.19
2023-10-18T05:01:54.634Z,98412.47
2023-10-18T05:04:34.240Z,98423.59
2023-10-18T05:07:16.810Z,98421.00
2023-10-18T05:09:45.669Z,98424.38
2023-10-18T05:12:22.377Z,98432.06
2023-10-18T05:14:55.119Z,98438.88
2023-10-18T05:17:27.711Z,98427.75
2023-10-18T05:19:58.362Z,98426.06
2023-10-18T05:22:26.159Z,98434.56
2023-10-18T05:25:18.569Z,98428.56
2023-10-18T05:28:10.086Z,98433.69
2023-10-18T05:30:57.255Z,98440.53
2023-10-18T05:33:51.328Z,98434.56
2023-10-18T05:36:20.892Z,98441.41
2023-10-18T05:38:47.770Z,98449.06
2023-10-18T05:41:28.482Z,98436.25
2023-10-18T05:44:07.256Z,98431.16
2023-10-18T05:46:35.623Z,98434.56
2023-10-18T05:49:02.817Z,98438.00
2023-10-18T05:51:39.800Z,98438.00
2023-10-18T05:54:07.628Z,98440.56
2023-10-18T05:56:35.192Z,98443.19
2023-10-18T05:59:21.864Z,98450.91
2023-10-18T06:01:59.742Z,98451.72
2023-10-18T06:04:30.668Z,98444.88
2023-10-18T06:07:06.216Z,98443.19
2023-10-18T06:09:46.720Z,98450.06
2023-10-18T06:12:15.980Z,98451.75
2023-10-18T06:14:46.233Z,98457.72
2023-10-18T06:17:13.777Z,98450.03
2023-10-18T06:19:42.517Z,98448.31
2023-10-18T06:22:17.157Z,98439.81
2023-10-18T06:24:49.979Z,98437.25
2023-10-18T06:27:17.633Z,98436.44
2023-10-18T06:29:46.548Z,98439.88
2023-10-18T06:32:17.038Z,98439.03
2023-10-18T06:34:45.251Z,98444.13
2023-10-18T06:37:22.266Z,98441.59
2023-10-18T06:39:52.696Z,98445.00
2023-10-18T06:42:20.065Z,98450.09
2023-10-18T06:44:47.501Z,98441.56
2023-10-18T06:47:14.748Z,98448.38
2023-10-18T06:49:44.766Z,98439.81
2023-10-18T06:52:17.780Z,98447.47
2023-10-18T06:54:47.310Z,98450.91
2023-10-18T06:57:17.051Z,98463.72
2023-10-18T06:59:45.699Z,98446.66
2023-10-18T07:02:13.957Z,98445.84
2023-10-18T07:04:47.908Z,98457.84
2023-10-18T07:07:20.993Z,98467.25
2023-10-18T07:09:55.604Z,98454.44
2023-10-18T07:12:44.034Z,98450.16
2023-10-18T07:15:17.243Z,98454.47
2023-10-18T07:17:53.378Z,98455.34
2023-10-18T07:20:22.325Z,98448.47
2023-10-18T07:22:56.284Z,98452.75
2023-10-18T07:25:30.447Z,98439.97
2023-10-18T07:27:58.063Z,98445.09
2023-10-18T07:30:41.586Z,98455.38
2023-10-18T07:33:14.094Z,98450.22
2023-10-18T07:35:46.727Z,98460.47
2023-10-18T07:38:16.154Z,98458.75
2023-10-18T07:40:44.154Z,98458.81
2023-10-18T07:43:16.305Z,98458.81
2023-10-18T07:45:48.220Z,98457.09
2023-10-18T07:48:18.149Z,98458.81
2023-10-18T07:50:51.189Z,98469.91
2023-10-18T07:53:22.146Z,98457.09
2023-10-18T07:55:58.417Z,98468.25
2023-10-18T07:58:25.919Z,98475.94
2023-10-18T08:01:03.615Z,98465.72
2023-10-18T08:03:32.656Z,98485.38
2023-10-18T08:06:01.047Z,98481.97
2023-10-18T08:08:28.098Z,98484.50
2023-10-18T08:10:56.009Z,98484.50
2023-10-18T08:13:32.533Z,98483.66
2023-10-18T08:16:03.049Z,98482.81
2023-10-18T08:18:45.308Z,98487.09
2023-10-18T08:21:27.569Z,98493.09
2023-10-18T08:23:57.877Z,98484.53
2023-10-18T08:26:28.230Z,98483.66
2023-10-18T08:28:55.345Z,98490.50
2023-10-18T08:31:36.113Z,98486.22
2023-10-18T08:34:07.666Z,98481.91
2023-10-18T08:36:35.008Z,98479.34
2023-10-18T08:39:03.081Z,98494.75
2023-10-18T08:41:34.914Z,98493.00
2023-10-18T08:44:17.959Z,98484.47
2023-10-18T08:46:53.831Z,98471.63
2023-10-18T08:49:23.697Z,98476.75
2023-10-18T08:52:06.295Z,98477.63
2023-10-18T08:54:43.910Z,98477.66
2023-10-18T08:57:12.789Z,98473.41
2023-10-18T08:59:51.831Z,98479.41
2023-10-18T09:02:22.556Z,98474.28
2023-10-18T09:04:56.642Z,98470.84
2023-10-18T09:07:46.309Z,98466.56
2023-10-18T09:10:35.048Z,98471.72
2023-10-18T09:13:18.306Z,98476.88
2023-10-18T09:16:00.350Z,98472.56
2023-10-18T09:18:34.496Z,98465.75
2023-10-18T09:21:14.510Z,98468.31
2023-10-18T09:23:47.550Z,98474.28
2023-10-18T09:26:27.423Z,98464.91
2023-10-18T09:29:01.083Z,98471.75
2023-10-18T09:31:29.492Z,98464.88
2023-10-18T09:34:00.402Z,98468.31
2023-10-18T09:36:28.645Z,98466.59
2023-10-18T09:38:57.282Z,98456.34
2023-10-18T09:41:28.119Z,98456.31
2023-10-18T09:43:56.493Z,98461.47
2023-10-18T09:46:23.515Z,98448.63
2023-10-18T09:48:50.938Z,98457.16
2023-10-18T09:51:22.594Z,98452.00
2023-10-18T09:53:53.967Z,98455.41
2023-10-18T09:56:28.685Z,98448.53
2023-10-18T09:59:06.718Z,98450.22
2023-10-18T10:01:44.448Z,98451.03
2023-10-18T10:04:18.846Z,98449.25
2023-10-18T10:06:47.026Z,98454.41
2023-10-18T10:09:15.933Z,98448.41
2023-10-18T10:11:48.171Z,98449.28
2023-10-18T10:14:17.814Z,98457.06
2023-10-18T10:16:55.939Z,98469.91
2023-10-18T10:19:30.997Z,98461.31
2023-10-18T10:22:07.793Z,98457.91
2023-10-18T10:24:45.754Z,98444.22
2023-10-18T10:27:33.472Z,98461.38
2023-10-18T10:30:25.273Z,98451.06
2023-10-18T10:33:13.476Z,98457.06
2023-10-18T10:35:48.873Z,98452.75
2023-10-18T10:38:27.842Z,98463.06
2023-10-18T10:41:13.845Z,98458.78
2023-10-18T10:44:09.663Z,98455.31
2023-10-18T10:46:39.023Z,98451.91
2023-10-18T10:49:49.131Z,98462.13
2023-10-18T10:52:19.985Z,98461.31
2023-10-18T10:54:52.793Z,98453.59
2023-10-18T10:57:20.689Z,98451.91
2023-10-18T10:59:56.964Z,98462.16
2023-10-18T11:02:40.868Z,98460.38
2023-10-18T11:05:17.044Z,98448.41
2023-10-18T11:07:48.298Z,98456.09
2023-10-18T11:10:18.585Z,98455.25
2023-10-18T11:12:47.075Z,98448.41
2023-10-18T11:15:28.987Z,98454.44
2023-10-18T11:18:11.090Z,98451.84
2023-10-18T11:20:51.774Z,98453.59
2023-10-18T11:23:18.652Z,98441.59
2023-10-18T11:25:46.540Z,98445.84
2023-10-18T11:28:29.950Z,98446.69
2023-10-18T11:30:58.641Z,98446.66
2023-10-18T11:33:38.629Z,98450.06
2023-10-18T11:36:10.139Z,98450.06
2023-10-18T11:38:38.924Z,98448.38
2023-10-18T11:41:12.255Z,98453.47
2023-10-18T11:43:44.884Z,98452.66
2023-10-18T11:46:13.097Z,98449.22
2023-10-18T11:48:42.280Z,98450.09
2023-10-18T11:51:09.523Z,98442.38
2023-10-18T11:53:36.715Z,98444.91
2023-10-18T11:56:09.734Z,98439.81
2023-10-18T11:58:38.568Z,98440.66
2023-10-18T12:01:32.848Z,98450.09
2023-10-18T12:04:00.589Z,98443.28
2023-10-18T12:06:28.712Z,98436.44
2023-10-18T12:09:26.528Z,98437.28
2023-10-18T12:11:53.972Z,98441.63
2023-10-18T12:14:23.839Z,98432.19
2023-10-18T12:16:53.385Z,98434.75
2023-10-18T12:19:21.138Z,98428.78
2023-10-18T12:21:55.424Z,98432.19
2023-10-18T12:24:23.471Z,98434.75
2023-10-18T12:26:54.955Z,98427.06
2023-10-18T12:29:28.183Z,98439.91
2023-10-18T12:32:09.471Z,98429.63
2023-10-18T12:34:36.507Z,98439.06
2023-10-18T12:37:03.490Z,98434.81
2023-10-18T12:39:36.289Z,98431.38
2023-10-18T12:42:05.866Z,98434.81
2023-10-18T12:44:32.808Z,98431.38
2023-10-18T12:47:00.191Z,98425.41
2023-10-18T12:49:33.270Z,98432.22
2023-10-18T12:52:01.604Z,98432.22
2023-10-18T12:54:35.529Z,98433.06
2023-10-18T12:57:15.761Z,98438.22
2023-10-18T13:00:00.995Z,98433.06
2023-10-18T13:02:47.106Z,98426.22
2023-10-18T13:05:15.803Z,98434.81
2023-10-18T13:07:45.918Z,98433.06
2023-10-18T13:10:14.554Z,98433.13
2023-10-18T13:12:52.929Z,98433.97
2023-10-18T13:15:20.170Z,98430.53
2023-10-18T13:17:47.236Z,98424.56
2023-10-18T13:20:17.032Z,98433.13
2023-10-18T13:22:45.067Z,98439.97
2023-10-18T13:25:26.301Z,98431.41
2023-10-18T13:28:06.341Z,98430.56
2023-10-18T13:30:34.238Z,98434.88
2023-10-18T13:33:12.455Z,98428.84
2023-10-18T13:35:42.590Z,98436.56
2023-10-18T13:38:10.559Z,98430.56
2023-10-18T13:40:40.837Z,98434.03
2023-10-18T13:43:11.109Z,98431.47
2023-10-18T13:45:38.628Z,98435.75
2023-10-18T13:48:05.905Z,98432.34
2023-10-18T13:50:42.392Z,98436.59
2023-10-18T13:53:11.998Z,98439.19
2023-10-18T13:55:39.454Z,98436.63
2023-10-18T13:58:07.956Z,98437.50
2023-10-18T14:00:41.687Z,98431.50
2023-10-18T14:03:09.390Z,98428.91
2023-10-18T14:05:47.016Z,98428.91
2023-10-18T14:08:17.995Z,98422.09
2023-10-18T14:10:46.297Z,98425.53
2023-10-18T14:13:13.558Z,98422.13
2023-10-18T14:15:40.521Z,98434.94
2023-10-18T14:18:08.080Z,98431.53
2023-10-18T14:20:38.910Z,98426.38
2023-10-18T14:23:11.279Z,98428.94
2023-10-18T14:25:44.020Z,98428.09
2023-10-18T14:28:13.954Z,98428.13
2023-10-18T14:30:41.336Z,98428.09
2023-10-18T14:33:14.443Z,98426.38
2023-10-18T14:35:44.654Z,98428.09
2023-10-18T14:38:14.152Z,98426.38
2023-10-18T14:41:02.089Z,98424.66
2023-10-18T14:43:36.086Z,98418.69
2023-10-18T14:46:03.178Z,98426.38
2023-10-18T14:48:30.135Z,98420.41
2023-10-18T14:50:57.171Z,98421.25
2023-10-18T14:53:24.314Z,98422.13
2023-10-18T14:55:51.266Z,98422.13
2023-10-18T14:58:18.168Z,98420.41
2023-10-18T15:00:47.578Z,98419.53
2023-10-18T15:03:17.385Z,98423.81
2023-10-18T15:05:44.463Z,98419.56
2023-10-18T15:08:14.168Z,98424.69
2023-10-18T15:10:41.702Z,98420.41
2023-10-18T15:13:08.556Z,98417.84
2023-10-18T15:15:35.583Z,98424.66
2023-10-18T15:18:05.229Z,98419.53
2023-10-18T15:20:32.721Z,98419.53
2023-10-18T15:22:59.569Z,98419.56
2023-10-18T15:25:26.452Z,98423.81
2023-10-18T15:27:54.123Z,98423.81
2023-10-18T15:30:21.147Z,98416.97
2023-10-18T15:32:48.213Z,98413.53
2023-10-18T15:35:17.150Z,98417.84
2023-10-18T15:37:44.763Z,98419.53
2023-10-18T15:40:16.104Z,98422.13
2023-10-18T15:42:44.399Z,98414.41
2023-10-18T15:45:18.864Z,98418.66
2023-10-18T15:47:45.863Z,98412.69
2023-10-18T15:50:13.674Z,98410.13
2023-10-18T15:52:40.664Z,98410.13
2023-10-18T15:55:16.396Z,98410.13
2023-10-18T15:57:44.760Z,98412.69
2023-10-18T16:00:22.703Z,98405.84
2023-10-18T16:02:51.129Z,98414.41
2023-10-18T16:05:26.010Z,98407.56
2023-10-18T16:07:56.172Z,98406.72
2023-10-18T16:10:26.123Z,98402.41
2023-10-18T16:12:53.023Z,98405.00
2023-10-18T16:15:21.766Z,98402.41
2023-10-18T16:17:51.946Z,98404.16
2023-10-18T16:20:21.900Z,98404.16
2023-10-18T16:22:48.807Z,98399.88
2023-10-18T16:25:17.013Z,98402.44
2023-10-18T16:27:44.376Z,98395.56
2023-10-18T16:30:14.310Z,98395.59
2023-10-18T16:32:41.820Z,98393.88
2023-10-18T16:35:09.520Z,98393.84
2023-10-18T16:37:36.662Z,98392.97
2023-10-18T16:40:05.993Z,98390.41
2023-10-18T16:42:32.867Z,98394.66
2023-10-18T16:45:00.657Z,98392.94
2023-10-18T16:47:27.732Z,98398.09
2023-10-18T16:50:10.232Z,98393.78
2023-10-18T16:52:44.895Z,98393.75
2023-10-18T16:55:13.108Z,98397.16
2023-10-18T16:57:40.810Z,98389.47
2023-10-18T17:00:30.436Z,98392.03
2023-10-18T17:02:57.384Z,98387.75
2023-10-18T17:05:25.362Z,98386.00
2023-10-18T17:07:53.380Z,98387.75
2023-10-18T17:10:20.396Z,98393.72
2023-10-18T17:12:48.841Z,98380.88
2023-10-18T17:15:19.921Z,98382.56
2023-10-18T17:17:46.909Z,98393.69
2023-10-18T17:20:17.205Z,98379.09
2023-10-18T17:22:47.897Z,98396.25
2023-10-18T17:25:15.711Z,98393.69
2023-10-18T17:27:42.900Z,98397.09
2023-10-18T17:30:13.470Z,98386.81
2023-10-18T17:32:43.743Z,98384.25
2023-10-18T17:35:14.937Z,98392.78
2023-10-18T17:37:45.661Z,98382.50
2023-10-18T17:40:18.109Z,98380.78
2023-10-18T17:42:47.980Z,98379.94
2023-10-18T17:45:25.554Z,98377.38
2023-10-18T17:47:55.483Z,98380.78
2023-10-18T17:50:23.816Z,98374.78
2023-10-18T17:52:53.117Z,98385.06
2023-10-18T17:55:22.739Z,98380.78
2023-10-18T17:57:54.365Z,98373.06
2023-10-18T18:00:26.301Z,98386.75
2023-10-18T18:02:58.416Z,98376.50
2023-10-18T18:05:32.417Z,98381.63
2023-10-18T18:08:00.910Z,98369.66
2023-10-18T18:10:29.314Z,98377.38
2023-10-18T18:12:58.961Z,98379.06
2023-10-18T18:15:26.080Z,98378.22
2023-10-18T18:17:53.359Z,98384.19
2023-10-18T18:20:24.200Z,98385.06
2023-10-18T18:22:51.760Z,98380.78
2023-10-18T18:25:18.882Z,98386.75
2023-10-18T18:27:48.037Z,98380.78
2023-10-18T18:30:16.057Z,98382.47
2023-10-18T18:32:43.323Z,98381.63
2023-10-18T18:35:14.355Z,98388.50
2023-10-18T18:37:44.760Z,98390.22
2023-10-18T18:40:12.339Z,98379.06
2023-10-18T18:42:39.957Z,98381.63
2023-10-18T18:45:11.049Z,98391.94
2023-10-18T18:47:39.672Z,98391.97
2023-10-18T18:50:11.695Z,98380.84
2023-10-18T18:52:41.099Z,98379.16
2023-10-18T18:55:12.525Z,98385.13
2023-10-18T18:57:40.646Z,98373.16
2023-10-18T19:00:21.574Z,98372.31
2023-10-18T19:02:51.233Z,98380.03
2023-10-18T19:05:19.737Z,98370.59
2023-10-18T19:07:47.294Z,98376.63
2023-10-18T19:10:18.740Z,98364.66
2023-10-18T19:12:48.692Z,98373.25
2023-10-18T19:15:22.110Z,98381.78
2023-10-18T19:17:50.874Z,98379.22
2023-10-18T19:20:19.546Z,98371.56
2023-10-18T19:22:51.073Z,98369.81
2023-10-18T19:25:19.560Z,98375.00
2023-10-18T19:27:48.599Z,98371.59
2023-10-18T19:30:18.426Z,98369.84
2023-10-18T19:32:45.576Z,98368.16
2023-10-18T19:35:13.138Z,98370.72
2023-10-18T19:37:41.194Z,98363.03
2023-10-18T19:40:12.416Z,98371.59
2023-10-18T19:42:40.704Z,98377.56
2023-10-18T19:45:09.605Z,98373.31
2023-10-18T19:47:36.890Z,98376.75
2023-10-18T19:50:04.290Z,98369.91
2023-10-18T19:52:32.774Z,98371.63
2023-10-18T19:54:59.718Z,98371.63
2023-10-18T19:57:26.779Z,98369.91
2023-10-18T19:59:54.015Z,98369.91
2023-10-18T20:02:21.459Z,98368.22
2023-10-18T20:04:48.698Z,98373.34
2023-10-18T20:07:18.431Z,98365.63
2023-10-18T20:09:45.440Z,98366.50
2023-10-18T20:12:12.642Z,98365.66
2023-10-18T20:14:39.786Z,98364.78
2023-10-18T20:17:10.051Z,98369.94
2023-10-18T20:19:37.014Z,98368.22
2023-10-18T20:22:05.973Z,98359.69
2023-10-18T20:24:32.827Z,98371.66
2023-10-18T20:26:59.737Z,98369.06
2023-10-18T20:29:26.737Z,98366.50
2023-10-18T20:31:53.660Z,98369.94
2023-10-18T20:34:20.777Z,98357.97
2023-10-18T20:36:47.655Z,98363.94
2023-10-18T20:39:18.522Z,98370.78
2023-10-18T20:41:45.868Z,98369.94
2023-10-18T20:44:28.122Z,98370.81
2023-10-18T20:46:57.093Z,98372.50
2023-10-18T20:49:27.773Z,98366.53
2023-10-18T20:51:57.876Z,98363.09
2023-10-18T20:54:26.543Z,98354.56
2023-10-18T20:57:11.015Z,98363.09
2023-10-18T20:59:40.598Z,98363.09
2023-10-18T21:02:13.503Z,98371.66
2023-10-18T21:04:40.656Z,98370.78
2023-10-18T21:07:10.061Z,98364.81
2023-10-18T21:09:37.206Z,98366.50
2023-10-18T21:12:07.871Z,98362.25
2023-10-18T21:14:34.848Z,98363.94
2023-10-18T21:17:01.798Z,98362.25
2023-10-18T21:19:28.754Z,98364.81
2023-10-18T21:21:56.080Z,98363.09
2023-10-18T21:24:23.051Z,98364.78
2023-10-18T21:26:50.042Z,98364.78
2023-10-18T21:29:17.184Z,98363.09
2023-10-18T21:31:44.748Z,98359.69
2023-10-18T21:34:12.236Z,98354.56
2023-10-18T21:36:39.121Z,98356.22
2023-10-18T21:39:07.627Z,98357.97
2023-10-18T21:41:36.127Z,98366.50
2023-10-18T21:44:05.072Z,98360.53
2023-10-18T21:46:35.616Z,98364.78
2023-10-18T21:49:02.884Z,98367.38
2023-10-18T21:51:30.102Z,98367.38
2023-10-18T21:53:58.119Z,98363.09
2023-10-18T21:56:25.085Z,98359.69
2023-10-18T21:58:52.517Z,98368.22
2023-10-18T22:01:30.944Z,98365.66
2023-10-18T22:04:00.947Z,98363.97
2023-10-18T22:06:29.605Z,98363.09
2023-10-18T22:09:06.560Z,98364.81
2023-10-18T22:11:36.218Z,98359.66
2023-10-18T22:14:18.868Z,98360.50
2023-10-18T22:16:54.776Z,98357.97
2023-10-18T22:19:31.961Z,98353.69
2023-10-18T22:22:12.497Z,98361.38
2023-10-18T22:24:40.596Z,98363.09
2023-10-18T22:27:07.488Z,98363.09
2023-10-18T22:29:35.760Z,98364.81
2023-10-18T22:34:33.038Z,98368.22
2023-10-18T22:37:00.110Z,98363.09
2023-10-18T22:39:35.289Z,98364.81
2023-10-18T22:42:09.706Z,98363.94
2023-10-18T22:44:39.839Z,98361.38
2023-10-18T22:47:08.370Z,98365.66
2023-10-18T22:49:39.266Z,98361.38
2023-10-18T22:52:19.713Z,98363.09
2023-10-18T22:54:46.956Z,98360.53
2023-10-18T22:57:26.272Z,98361.38
2023-10-18T22:59:56.896Z,98361.38
2023-10-18T23:02:29.080Z,98358.81
2023-10-18T23:04:56.120Z,98353.66
2023-10-18T23:07:29.014Z,98357.97
2023-10-18T23:09:56.262Z,98362.25
2023-10-18T23:12:25.100Z,98351.97
2023-10-18T23:15:19.066Z,98356.28
2023-10-18T23:17:53.490Z,98349.41
2023-10-18T23:20:41.320Z,98355.41
2023-10-18T23:23:08.629Z,98352.81
2023-10-18T23:25:54.097Z,98351.13
2023-10-18T23:28:29.566Z,98352.00
2023-10-18T23:31:07.693Z,98347.69
2023-10-18T23:33:46.280Z,98349.41
2023-10-18T23:36:16.086Z,98347.69
2023-10-18T23:38:44.807Z,98346.84
2023-10-18T23:41:21.971Z,98346.00
2023-10-18T23:43:50.832Z,98346.00
2023-10-18T23:46:33.699Z,98347.69
2023-10-18T23:49:06.701Z,98342.56
2023-10-18T23:51:37.227Z,98346.00
2023-10-18T23:54:05.970Z,98340.88
2023-10-18T23:56:34.185Z,98341.72
2023-10-18T23:59:01.588Z,98344.28
